sensor_id;sensor_type;location;lat;lon;timestamp;temperature;humidity
16441;DHT22;8330;-33.858;151.184;2024-01-30T00:02:13;25.60;99.90
16441;DHT22;8330;-33.858;151.184;2024-01-30T00:04:44;25.60;99.90
16441;DHT22;8330;-33.858;151.184;2024-01-30T00:07:16;25.50;99.90
16441;DHT22;8330;-33.858;151.184;2024-01-30T00:09:48;25.40;99.90
16441;DHT22;8330;-33.858;151.184;2024-01-30T00:12:19;25.50;99.90
16441;DHT22;8330;-33.858;151.184;2024-01-30T00:14:49;25.40;99.90
16441;DHT22;8330;-33.858;151.184;2024-01-30T00:17:20;25.50;99.90
16441;DHT22;8330;-33.858;151.184;2024-01-30T00:19:53;25.50;99.90
16441;DHT22;8330;-33.858;151.184;2024-01-30T00:22:25;25.60;99.90
16441;DHT22;8330;-33.858;151.184;2024-01-30T00:24:59;25.60;99.90
16441;DHT22;8330;-33.858;151.184;2024-01-30T00:27:30;25.60;99.90
16441;DHT22;8330;-33.858;151.184;2024-01-30T00:30:01;25.50;99.90
16441;DHT22;8330;-33.858;151.184;2024-01-30T00:32:32;25.50;99.90
16441;DHT22;8330;-33.858;151.184;2024-01-30T00:35:03;25.60;99.90
16441;DHT22;8330;-33.858;151.184;2024-01-30T00:37:36;25.60;99.90
16441;DHT22;8330;-33.858;151.184;2024-01-30T00:40:07;25.60;99.90
16441;DHT22;8330;-33.858;151.184;2024-01-30T00:42:43;25.60;99.90
16441;DHT22;8330;-33.858;151.184;2024-01-30T00:45:14;25.50;99.90
16441;DHT22;8330;-33.858;151.184;2024-01-30T00:47:45;25.60;99.90
16441;DHT22;8330;-33.858;151.184;2024-01-30T00:50:16;25.70;99.90
16441;DHT22;8330;-33.858;151.184;2024-01-30T00:52:49;25.80;99.90
16441;DHT22;8330;-33.858;151.184;2024-01-30T00:55:20;26.00;99.90
16441;DHT22;8330;-33.858;151.184;2024-01-30T00:57:51;26.10;99.90
16441;DHT22;8330;-33.858;151.184;2024-01-30T01:00:22;26.20;99.90
16441;DHT22;8330;-33.858;151.184;2024-01-30T01:02:56;26.10;99.90
16441;DHT22;8330;-33.858;151.184;2024-01-30T01:05:28;26.20;99.90
16441;DHT22;8330;-33.858;151.184;2024-01-30T01:08:00;26.20;99.90
16441;DHT22;8330;-33.858;151.184;2024-01-30T01:10:31;26.20;99.90
16441;DHT22;8330;-33.858;151.184;2024-01-30T01:13:02;26.10;99.90
16441;DHT22;8330;-33.858;151.184;2024-01-30T01:15:33;26.10;99.90
16441;DHT22;8330;-33.858;151.184;2024-01-30T01:18:04;26.20;99.90
16441;DHT22;8330;-33.858;151.184;2024-01-30T01:20:35;26.20;99.90
16441;DHT22;8330;-33.858;151.184;2024-01-30T01:23:07;26.20;99.90
16441;DHT22;8330;-33.858;151.184;2024-01-30T01:25:38;26.20;99.90
16441;DHT22;8330;-33.858;151.184;2024-01-30T01:28:09;26.30;99.90
16441;DHT22;8330;-33.858;151.184;2024-01-30T01:30:40;26.50;99.90
16441;DHT22;8330;-33.858;151.184;2024-01-30T01:33:11;26.40;99.90
16441;DHT22;8330;-33.858;151.184;2024-01-30T01:35:42;26.60;99.90
16441;DHT22;8330;-33.858;151.184;2024-01-30T01:38:14;26.60;99.90
16441;DHT22;8330;-33.858;151.184;2024-01-30T01:40:45;26.50;99.90
16441;DHT22;8330;-33.858;151.184;2024-01-30T01:43:16;26.60;99.90
16441;DHT22;8330;-33.858;151.184;2024-01-30T01:45:47;26.60;99.90
16441;DHT22;8330;-33.858;151.184;2024-01-30T01:48:18;26.70;99.90
16441;DHT22;8330;-33.858;151.184;2024-01-30T01:50:49;26.70;99.90
16441;DHT22;8330;-33.858;151.184;2024-01-30T01:53:21;26.70;99.90
16441;DHT22;8330;-33.858;151.184;2024-01-30T01:55:53;26.70;99.90
16441;DHT22;8330;-33.858;151.184;2024-01-30T01:58:28;26.80;99.90
16441;DHT22;8330;-33.858;151.184;2024-01-30T02:01:00;26.90;99.90
16441;DHT22;8330;-33.858;151.184;2024-01-30T02:03:31;26.90;99.90
16441;DHT22;8330;-33.858;151.184;2024-01-30T02:06:02;26.90;99.90
16441;DHT22;8330;-33.858;151.184;2024-01-30T02:08:35;26.80;99.90
16441;DHT22;8330;-33.858;151.184;2024-01-30T02:11:08;26.70;99.90
16441;DHT22;8330;-33.858;151.184;2024-01-30T02:13:39;26.50;99.90
16441;DHT22;8330;-33.858;151.184;2024-01-30T02:16:11;26.40;99.90
16441;DHT22;8330;-33.858;151.184;2024-01-30T02:18:42;26.40;99.90
16441;DHT22;8330;-33.858;151.184;2024-01-30T02:21:17;26.30;99.90
16441;DHT22;8330;-33.858;151.184;2024-01-30T02:23:49;26.40;99.90
16441;DHT22;8330;-33.858;151.184;2024-01-30T02:26:21;26.50;99.90
16441;DHT22;8330;-33.858;151.184;2024-01-30T02:28:51;26.50;99.90
16441;DHT22;8330;-33.858;151.184;2024-01-30T02:31:22;26.40;99.90
16441;DHT22;8330;-33.858;151.184;2024-01-30T02:33:55;26.40;99.90
16441;DHT22;8330;-33.858;151.184;2024-01-30T02:36:27;26.50;99.90
16441;DHT22;8330;-33.858;151.184;2024-01-30T02:38:58;26.60;99.90
16441;DHT22;8330;-33.858;151.184;2024-01-30T02:41:29;26.70;99.90
16441;DHT22;8330;-33.858;151.184;2024-01-30T02:44:00;26.90;99.90
16441;DHT22;8330;-33.858;151.184;2024-01-30T02:46:31;27.00;99.90
16441;DHT22;8330;-33.858;151.184;2024-01-30T02:49:01;27.10;99.90
16441;DHT22;8330;-33.858;151.184;2024-01-30T02:51:34;27.10;99.90
16441;DHT22;8330;-33.858;151.184;2024-01-30T02:54:05;27.10;99.90
16441;DHT22;8330;-33.858;151.184;2024-01-30T02:56:36;27.10;99.90
16441;DHT22;8330;-33.858;151.184;2024-01-30T02:59:07;27.00;99.90
16441;DHT22;8330;-33.858;151.184;2024-01-30T03:01:44;27.10;99.90
16441;DHT22;8330;-33.858;151.184;2024-01-30T03:04:15;27.00;99.90
16441;DHT22;8330;-33.858;151.184;2024-01-30T03:06:51;27.00;99.90
16441;DHT22;8330;-33.858;151.184;2024-01-30T03:09:21;26.90;99.90
16441;DHT22;8330;-33.858;151.184;2024-01-30T03:11:52;26.90;99.90
16441;DHT22;8330;-33.858;151.184;2024-01-30T03:14:23;26.90;99.90
16441;DHT22;8330;-33.858;151.184;2024-01-30T03:16:54;27.10;99.90
16441;DHT22;8330;-33.858;151.184;2024-01-30T03:19:25;27.20;99.90
16441;DHT22;8330;-33.858;151.184;2024-01-30T03:21:58;27.30;99.90
16441;DHT22;8330;-33.858;151.184;2024-01-30T03:24:28;27.40;99.90
16441;DHT22;8330;-33.858;151.184;2024-01-30T03:26:59;27.30;99.90
16441;DHT22;8330;-33.858;151.184;2024-01-30T03:29:30;27.20;99.90
16441;DHT22;8330;-33.858;151.184;2024-01-30T03:32:01;27.30;99.90
16441;DHT22;8330;-33.858;151.184;2024-01-30T03:34:31;27.30;99.90
16441;DHT22;8330;-33.858;151.184;2024-01-30T03:37:04;27.30;99.90
16441;DHT22;8330;-33.858;151.184;2024-01-30T03:39:35;27.20;99.90
16441;DHT22;8330;-33.858;151.184;2024-01-30T03:42:06;27.10;99.90
16441;DHT22;8330;-33.858;151.184;2024-01-30T03:44:37;27.00;99.90
16441;DHT22;8330;-33.858;151.184;2024-01-30T03:47:08;27.00;99.90
16441;DHT22;8330;-33.858;151.184;2024-01-30T03:49:39;26.90;99.90
16441;DHT22;8330;-33.858;151.184;2024-01-30T03:52:11;26.90;99.90
16441;DHT22;8330;-33.858;151.184;2024-01-30T03:54:42;26.90;99.90
16441;DHT22;8330;-33.858;151.184;2024-01-30T03:57:13;26.90;99.90
16441;DHT22;8330;-33.858;151.184;2024-01-30T03:59:44;26.90;99.90
16441;DHT22;8330;-33.858;151.184;2024-01-30T04:02:14;26.90;99.90
16441;DHT22;8330;-33.858;151.184;2024-01-30T04:04:45;26.80;99.90
16441;DHT22;8330;-33.858;151.184;2024-01-30T04:07:18;26.70;99.90
16441;DHT22;8330;-33.858;151.184;2024-01-30T04:09:49;26.70;99.90
16441;DHT22;8330;-33.858;151.184;2024-01-30T04:12:19;26.70;99.90
16441;DHT22;8330;-33.858;151.184;2024-01-30T04:14:50;26.60;99.90
16441;DHT22;8330;-33.858;151.184;2024-01-30T04:17:21;26.50;99.90
16441;DHT22;8330;-33.858;151.184;2024-01-30T04:19:52;26.40;99.90
16441;DHT22;8330;-33.858;151.184;2024-01-30T04:22:24;26.50;99.90
16441;DHT22;8330;-33.858;151.184;2024-01-30T04:24:55;26.50;99.90
16441;DHT22;8330;-33.858;151.184;2024-01-30T04:27:26;26.50;99.90
16441;DHT22;8330;-33.858;151.184;2024-01-30T04:29:56;26.40;99.90
16441;DHT22;8330;-33.858;151.184;2024-01-30T04:32:27;26.40;99.90
16441;DHT22;8330;-33.858;151.184;2024-01-30T04:34:58;26.40;99.90
16441;DHT22;8330;-33.858;151.184;2024-01-30T04:37:31;26.40;99.90
16441;DHT22;8330;-33.858;151.184;2024-01-30T04:40:01;26.50;99.90
16441;DHT22;8330;-33.858;151.184;2024-01-30T04:42:33;26.50;99.90
16441;DHT22;8330;-33.858;151.184;2024-01-30T04:45:03;26.60;99.90
16441;DHT22;8330;-33.858;151.184;2024-01-30T04:47:34;26.60;99.90
16441;DHT22;8330;-33.858;151.184;2024-01-30T04:50:05;26.60;99.90
16441;DHT22;8330;-33.858;151.184;2024-01-30T04:52:38;26.50;99.90
16441;DHT22;8330;-33.858;151.184;2024-01-30T04:55:09;26.50;99.90
16441;DHT22;8330;-33.858;151.184;2024-01-30T04:57:40;26.60;99.90
16441;DHT22;8330;-33.858;151.184;2024-01-30T05:00:11;26.70;99.90
16441;DHT22;8330;-33.858;151.184;2024-01-30T05:02:43;26.90;99.90
16441;DHT22;8330;-33.858;151.184;2024-01-30T05:05:15;27.00;99.90
16441;DHT22;8330;-33.858;151.184;2024-01-30T05:07:47;27.10;99.90
16441;DHT22;8330;-33.858;151.184;2024-01-30T05:10:18;27.30;99.90
16441;DHT22;8330;-33.858;151.184;2024-01-30T05:12:49;27.40;99.90
16441;DHT22;8330;-33.858;151.184;2024-01-30T05:15:20;27.40;99.90
16441;DHT22;8330;-33.858;151.184;2024-01-30T05:17:50;27.60;99.90
16441;DHT22;8330;-33.858;151.184;2024-01-30T05:20:21;27.60;99.90
16441;DHT22;8330;-33.858;151.184;2024-01-30T05:22:57;27.60;99.90
16441;DHT22;8330;-33.858;151.184;2024-01-30T05:25:28;27.70;99.90
16441;DHT22;8330;-33.858;151.184;2024-01-30T05:27:59;27.80;99.90
16441;DHT22;8330;-33.858;151.184;2024-01-30T05:30:29;27.80;99.90
16441;DHT22;8330;-33.858;151.184;2024-01-30T05:33:00;27.90;99.90
16441;DHT22;8330;-33.858;151.184;2024-01-30T05:35:31;28.00;99.90
16441;DHT22;8330;-33.858;151.184;2024-01-30T05:38:04;28.20;99.90
16441;DHT22;8330;-33.858;151.184;2024-01-30T05:40:35;28.20;99.90
16441;DHT22;8330;-33.858;151.184;2024-01-30T05:43:06;28.30;99.90
16441;DHT22;8330;-33.858;151.184;2024-01-30T05:45:37;28.30;99.90
16441;DHT22;8330;-33.858;151.184;2024-01-30T05:48:08;28.20;99.90
16441;DHT22;8330;-33.858;151.184;2024-01-30T05:50:38;28.20;99.90
16441;DHT22;8330;-33.858;151.184;2024-01-30T05:53:11;28.20;99.90
16441;DHT22;8330;-33.858;151.184;2024-01-30T05:55:42;28.20;99.90
16441;DHT22;8330;-33.858;151.184;2024-01-30T05:58:13;28.10;99.90
16441;DHT22;8330;-33.858;151.184;2024-01-30T06:00:43;28.00;99.90
16441;DHT22;8330;-33.858;151.184;2024-01-30T06:03:14;27.90;99.90
16441;DHT22;8330;-33.858;151.184;2024-01-30T06:05:45;27.80;99.90
16441;DHT22;8330;-33.858;151.184;2024-01-30T06:08:18;27.60;99.90
16441;DHT22;8330;-33.858;151.184;2024-01-30T06:10:48;27.60;99.90
16441;DHT22;8330;-33.858;151.184;2024-01-30T06:13:20;27.50;99.90
16441;DHT22;8330;-33.858;151.184;2024-01-30T06:15:50;27.50;99.90
16441;DHT22;8330;-33.858;151.184;2024-01-30T06:18:21;27.40;99.90
16441;DHT22;8330;-33.858;151.184;2024-01-30T06:20:52;27.30;99.90
16441;DHT22;8330;-33.858;151.184;2024-01-30T06:23:24;27.30;99.90
16441;DHT22;8330;-33.858;151.184;2024-01-30T06:25:55;27.50;99.90
16441;DHT22;8330;-33.858;151.184;2024-01-30T06:28:26;27.70;99.90
16441;DHT22;8330;-33.858;151.184;2024-01-30T06:30:57;28.10;99.90
16441;DHT22;8330;-33.858;151.184;2024-01-30T06:33:27;28.70;99.90
16441;DHT22;8330;-33.858;151.184;2024-01-30T06:35:58;29.10;99.90
16441;DHT22;8330;-33.858;151.184;2024-01-30T06:38:31;29.30;99.90
16441;DHT22;8330;-33.858;151.184;2024-01-30T06:41:02;29.40;99.90
16441;DHT22;8330;-33.858;151.184;2024-01-30T06:43:32;29.10;99.90
16441;DHT22;8330;-33.858;151.184;2024-01-30T06:46:03;28.80;99.90
16441;DHT22;8330;-33.858;151.184;2024-01-30T06:48:34;28.50;99.90
16441;DHT22;8330;-33.858;151.184;2024-01-30T06:51:08;28.10;99.90
16441;DHT22;8330;-33.858;151.184;2024-01-30T06:53:41;27.70;99.90
16441;DHT22;8330;-33.858;151.184;2024-01-30T06:56:12;27.50;99.90
16441;DHT22;8330;-33.858;151.184;2024-01-30T06:58:43;27.30;99.90
16441;DHT22;8330;-33.858;151.184;2024-01-30T07:01:13;27.10;99.90
16441;DHT22;8330;-33.858;151.184;2024-01-30T07:03:44;27.00;99.90
16441;DHT22;8330;-33.858;151.184;2024-01-30T07:06:15;26.80;99.90
16441;DHT22;8330;-33.858;151.184;2024-01-30T07:08:48;26.70;99.90
16441;DHT22;8330;-33.858;151.184;2024-01-30T07:11:20;26.70;99.90
16441;DHT22;8330;-33.858;151.184;2024-01-30T07:13:52;26.60;99.90
16441;DHT22;8330;-33.858;151.184;2024-01-30T07:16:23;26.60;99.90
16441;DHT22;8330;-33.858;151.184;2024-01-30T07:18:53;26.50;99.90
16441;DHT22;8330;-33.858;151.184;2024-01-30T07:21:24;26.40;99.90
16441;DHT22;8330;-33.858;151.184;2024-01-30T07:23:57;26.30;99.90
16441;DHT22;8330;-33.858;151.184;2024-01-30T07:26:28;26.30;99.90
16441;DHT22;8330;-33.858;151.184;2024-01-30T07:28:59;26.20;99.90
16441;DHT22;8330;-33.858;151.184;2024-01-30T07:31:30;26.30;99.90
16441;DHT22;8330;-33.858;151.184;2024-01-30T07:34:01;26.20;99.90
16441;DHT22;8330;-33.858;151.184;2024-01-30T07:36:32;26.10;99.90
16441;DHT22;8330;-33.858;151.184;2024-01-30T07:39:05;26.10;99.90
16441;DHT22;8330;-33.858;151.184;2024-01-30T07:41:35;26.10;99.90
16441;DHT22;8330;-33.858;151.184;2024-01-30T07:44:06;26.10;99.90
16441;DHT22;8330;-33.858;151.184;2024-01-30T07:46:37;26.10;99.90
16441;DHT22;8330;-33.858;151.184;2024-01-30T07:49:08;26.00;99.90
16441;DHT22;8330;-33.858;151.184;2024-01-30T07:51:38;26.00;99.90
16441;DHT22;8330;-33.858;151.184;2024-01-30T07:54:12;26.00;99.90
16441;DHT22;8330;-33.858;151.184;2024-01-30T07:56:43;26.00;99.90
16441;DHT22;8330;-33.858;151.184;2024-01-30T07:59:15;26.00;99.90
16441;DHT22;8330;-33.858;151.184;2024-01-30T08:01:49;25.90;99.90
16441;DHT22;8330;-33.858;151.184;2024-01-30T08:04:20;26.00;99.90
16441;DHT22;8330;-33.858;151.184;2024-01-30T08:06:51;25.90;99.90
16441;DHT22;8330;-33.858;151.184;2024-01-30T08:09:23;25.90;99.90
16441;DHT22;8330;-33.858;151.184;2024-01-30T08:11:54;25.80;99.90
16441;DHT22;8330;-33.858;151.184;2024-01-30T08:14:25;25.80;99.90
16441;DHT22;8330;-33.858;151.184;2024-01-30T08:16:56;25.80;99.90
16441;DHT22;8330;-33.858;151.184;2024-01-30T08:19:26;25.90;99.90
16441;DHT22;8330;-33.858;151.184;2024-01-30T08:21:57;25.80;99.90
16441;DHT22;8330;-33.858;151.184;2024-01-30T08:24:30;25.80;99.90
16441;DHT22;8330;-33.858;151.184;2024-01-30T08:27:00;25.80;99.90
16441;DHT22;8330;-33.858;151.184;2024-01-30T08:29:32;25.80;99.90
16441;DHT22;8330;-33.858;151.184;2024-01-30T08:32:04;25.80;99.90
16441;DHT22;8330;-33.858;151.184;2024-01-30T08:34:34;25.70;99.90
16441;DHT22;8330;-33.858;151.184;2024-01-30T08:37:05;25.70;99.90
16441;DHT22;8330;-33.858;151.184;2024-01-30T08:39:38;25.70;99.90
16441;DHT22;8330;-33.858;151.184;2024-01-30T08:42:09;25.70;99.90
16441;DHT22;8330;-33.858;151.184;2024-01-30T08:44:40;25.70;99.90
16441;DHT22;8330;-33.858;151.184;2024-01-30T08:47:11;25.70;99.90
16441;DHT22;8330;-33.858;151.184;2024-01-30T08:49:44;25.60;99.90
16441;DHT22;8330;-33.858;151.184;2024-01-30T08:52:15;25.60;99.90
16441;DHT22;8330;-33.858;151.184;2024-01-30T08:54:48;25.60;99.90
16441;DHT22;8330;-33.858;151.184;2024-01-30T08:57:18;25.50;99.90
16441;DHT22;8330;-33.858;151.184;2024-01-30T08:59:49;25.40;99.90
16441;DHT22;8330;-33.858;151.184;2024-01-30T09:02:20;25.40;99.90
16441;DHT22;8330;-33.858;151.184;2024-01-30T09:04:51;25.30;99.90
16441;DHT22;8330;-33.858;151.184;2024-01-30T09:07:21;25.30;99.90
16441;DHT22;8330;-33.858;151.184;2024-01-30T09:09:54;25.40;99.90
16441;DHT22;8330;-33.858;151.184;2024-01-30T09:12:25;25.40;99.90
16441;DHT22;8330;-33.858;151.184;2024-01-30T09:14:56;25.40;99.90
16441;DHT22;8330;-33.858;151.184;2024-01-30T09:17:27;25.30;99.90
16441;DHT22;8330;-33.858;151.184;2024-01-30T09:19:58;25.30;99.90
16441;DHT22;8330;-33.858;151.184;2024-01-30T09:22:29;25.30;99.90
16441;DHT22;8330;-33.858;151.184;2024-01-30T09:25:02;25.30;99.90
16441;DHT22;8330;-33.858;151.184;2024-01-30T09:27:33;25.20;99.90
16441;DHT22;8330;-33.858;151.184;2024-01-30T09:30:04;25.20;99.90
16441;DHT22;8330;-33.858;151.184;2024-01-30T09:32:35;25.30;99.90
16441;DHT22;8330;-33.858;151.184;2024-01-30T09:35:06;25.30;99.90
16441;DHT22;8330;-33.858;151.184;2024-01-30T09:37:37;25.30;99.90
16441;DHT22;8330;-33.858;151.184;2024-01-30T09:40:10;25.30;99.90
16441;DHT22;8330;-33.858;151.184;2024-01-30T09:42:41;25.30;99.90
16441;DHT22;8330;-33.858;151.184;2024-01-30T09:45:15;25.30;99.90
16441;DHT22;8330;-33.858;151.184;2024-01-30T09:47:47;25.40;99.90
16441;DHT22;8330;-33.858;151.184;2024-01-30T09:50:18;25.40;99.90
16441;DHT22;8330;-33.858;151.184;2024-01-30T09:52:49;25.40;99.90
16441;DHT22;8330;-33.858;151.184;2024-01-30T09:55:22;25.40;99.90
16441;DHT22;8330;-33.858;151.184;2024-01-30T09:57:52;25.40;99.90
16441;DHT22;8330;-33.858;151.184;2024-01-30T10:00:23;25.40;99.90
16441;DHT22;8330;-33.858;151.184;2024-01-30T10:02:55;25.30;99.90
16441;DHT22;8330;-33.858;151.184;2024-01-30T10:05:28;25.40;99.90
16441;DHT22;8330;-33.858;151.184;2024-01-30T10:08:05;25.40;99.90
16441;DHT22;8330;-33.858;151.184;2024-01-30T10:10:38;25.40;99.90
16441;DHT22;8330;-33.858;151.184;2024-01-30T10:13:09;25.40;99.90
16441;DHT22;8330;-33.858;151.184;2024-01-30T10:15:40;25.40;99.90
16441;DHT22;8330;-33.858;151.184;2024-01-30T10:18:12;25.40;99.90
16441;DHT22;8330;-33.858;151.184;2024-01-30T10:20:43;25.40;99.90
16441;DHT22;8330;-33.858;151.184;2024-01-30T10:23:15;25.40;99.90
16441;DHT22;8330;-33.858;151.184;2024-01-30T10:25:48;25.40;99.90
16441;DHT22;8330;-33.858;151.184;2024-01-30T10:28:18;25.40;99.90
16441;DHT22;8330;-33.858;151.184;2024-01-30T10:30:59;25.40;99.90
16441;DHT22;8330;-33.858;151.184;2024-01-30T10:33:31;25.40;99.90
16441;DHT22;8330;-33.858;151.184;2024-01-30T10:36:03;25.40;99.90
16441;DHT22;8330;-33.858;151.184;2024-01-30T10:38:34;25.50;99.90
16441;DHT22;8330;-33.858;151.184;2024-01-30T10:41:08;25.40;99.90
16441;DHT22;8330;-33.858;151.184;2024-01-30T10:43:42;25.40;99.90
16441;DHT22;8330;-33.858;151.184;2024-01-30T10:46:19;25.40;99.90
16441;DHT22;8330;-33.858;151.184;2024-01-30T10:48:57;25.40;99.90
16441;DHT22;8330;-33.858;151.184;2024-01-30T10:51:29;25.40;99.90
16441;DHT22;8330;-33.858;151.184;2024-01-30T10:54:02;25.40;99.90
16441;DHT22;8330;-33.858;151.184;2024-01-30T10:56:36;25.40;99.90
16441;DHT22;8330;-33.858;151.184;2024-01-30T10:59:07;25.40;99.90
16441;DHT22;8330;-33.858;151.184;2024-01-30T11:01:38;25.30;99.90
16441;DHT22;8330;-33.858;151.184;2024-01-30T11:04:09;25.30;99.90
16441;DHT22;8330;-33.858;151.184;2024-01-30T11:06:42;25.30;99.90
16441;DHT22;8330;-33.858;151.184;2024-01-30T11:09:16;25.30;99.90
16441;DHT22;8330;-33.858;151.184;2024-01-30T11:11:56;25.30;99.90
16441;DHT22;8330;-33.858;151.184;2024-01-30T11:14:29;25.20;99.90
16441;DHT22;8330;-33.858;151.184;2024-01-30T11:17:00;25.20;99.90
16441;DHT22;8330;-33.858;151.184;2024-01-30T11:19:32;25.20;99.90
16441;DHT22;8330;-33.858;151.184;2024-01-30T11:22:04;25.20;99.90
16441;DHT22;8330;-33.858;151.184;2024-01-30T11:24:40;25.20;99.90
16441;DHT22;8330;-33.858;151.184;2024-01-30T11:27:14;25.20;99.90
16441;DHT22;8330;-33.858;151.184;2024-01-30T11:29:51;25.20;99.90
16441;DHT22;8330;-33.858;151.184;2024-01-30T11:32:24;25.20;99.90
16441;DHT22;8330;-33.858;151.184;2024-01-30T11:34:55;25.20;99.90
16441;DHT22;8330;-33.858;151.184;2024-01-30T11:37:26;25.20;99.90
16441;DHT22;8330;-33.858;151.184;2024-01-30T11:39:57;25.20;99.90
16441;DHT22;8330;-33.858;151.184;2024-01-30T11:42:32;25.20;99.90
16441;DHT22;8330;-33.858;151.184;2024-01-30T11:45:02;25.20;99.90
16441;DHT22;8330;-33.858;151.184;2024-01-30T11:47:36;25.20;99.90
16441;DHT22;8330;-33.858;151.184;2024-01-30T11:50:07;25.20;99.90
16441;DHT22;8330;-33.858;151.184;2024-01-30T11:52:39;25.20;99.90
16441;DHT22;8330;-33.858;151.184;2024-01-30T11:55:16;25.10;99.90
16441;DHT22;8330;-33.858;151.184;2024-01-30T11:57:49;25.20;99.90
16441;DHT22;8330;-33.858;151.184;2024-01-30T12:00:20;25.20;99.90
16441;DHT22;8330;-33.858;151.184;2024-01-30T12:02:51;25.20;99.90
16441;DHT22;8330;-33.858;151.184;2024-01-30T12:05:23;25.20;99.90
16441;DHT22;8330;-33.858;151.184;2024-01-30T12:07:54;25.20;99.90
16441;DHT22;8330;-33.858;151.184;2024-01-30T12:10:26;25.20;99.90
16441;DHT22;8330;-33.858;151.184;2024-01-30T12:12:59;25.20;99.90
16441;DHT22;8330;-33.858;151.184;2024-01-30T12:15:30;25.20;99.90
16441;DHT22;8330;-33.858;151.184;2024-01-30T12:18:07;25.20;99.90
16441;DHT22;8330;-33.858;151.184;2024-01-30T12:20:38;25.20;99.90
16441;DHT22;8330;-33.858;151.184;2024-01-30T12:23:08;25.20;99.90
16441;DHT22;8330;-33.858;151.184;2024-01-30T12:25:39;25.20;99.90
16441;DHT22;8330;-33.858;151.184;2024-01-30T12:28:12;25.20;99.90
16441;DHT22;8330;-33.858;151.184;2024-01-30T12:30:43;25.20;99.90
16441;DHT22;8330;-33.858;151.184;2024-01-30T12:33:17;25.20;99.90
16441;DHT22;8330;-33.858;151.184;2024-01-30T12:35:48;25.20;99.90
16441;DHT22;8330;-33.858;151.184;2024-01-30T12:38:19;25.20;99.90
16441;DHT22;8330;-33.858;151.184;2024-01-30T12:40:54;25.20;99.90
16441;DHT22;8330;-33.858;151.184;2024-01-30T12:43:28;25.20;99.90
16441;DHT22;8330;-33.858;151.184;2024-01-30T12:46:00;25.20;99.90
16441;DHT22;8330;-33.858;151.184;2024-01-30T12:48:30;25.20;99.90
16441;DHT22;8330;-33.858;151.184;2024-01-30T12:51:01;25.20;99.90
16441;DHT22;8330;-33.858;151.184;2024-01-30T12:53:33;25.20;99.90
16441;DHT22;8330;-33.858;151.184;2024-01-30T12:56:04;25.20;99.90
16441;DHT22;8330;-33.858;151.184;2024-01-30T12:58:36;25.30;99.90
16441;DHT22;8330;-33.858;151.184;2024-01-30T13:01:07;25.30;99.90
16441;DHT22;8330;-33.858;151.184;2024-01-30T13:03:38;25.30;99.90
16441;DHT22;8330;-33.858;151.184;2024-01-30T13:06:09;25.30;99.90
16441;DHT22;8330;-33.858;151.184;2024-01-30T13:08:39;25.30;99.90
16441;DHT22;8330;-33.858;151.184;2024-01-30T13:11:10;25.30;99.90
16441;DHT22;8330;-33.858;151.184;2024-01-30T13:13:43;25.30;99.90
16441;DHT22;8330;-33.858;151.184;2024-01-30T13:16:14;25.30;99.90
16441;DHT22;8330;-33.858;151.184;2024-01-30T13:18:45;25.30;99.90
16441;DHT22;8330;-33.858;151.184;2024-01-30T13:21:16;25.20;99.90
16441;DHT22;8330;-33.858;151.184;2024-01-30T13:23:47;25.20;99.90
16441;DHT22;8330;-33.858;151.184;2024-01-30T13:26:20;25.30;99.90
16441;DHT22;8330;-33.858;151.184;2024-01-30T13:28:53;25.20;99.90
16441;DHT22;8330;-33.858;151.184;2024-01-30T13:31:24;25.20;99.90
16441;DHT22;8330;-33.858;151.184;2024-01-30T13:33:55;25.20;99.90
16441;DHT22;8330;-33.858;151.184;2024-01-30T13:36:26;25.20;99.90
16441;DHT22;8330;-33.858;151.184;2024-01-30T13:38:56;25.20;99.90
16441;DHT22;8330;-33.858;151.184;2024-01-30T13:41:27;25.20;99.90
16441;DHT22;8330;-33.858;151.184;2024-01-30T13:44:00;25.20;99.90
16441;DHT22;8330;-33.858;151.184;2024-01-30T13:46:31;25.20;99.90
16441;DHT22;8330;-33.858;151.184;2024-01-30T13:49:02;25.20;99.90
16441;DHT22;8330;-33.858;151.184;2024-01-30T13:51:32;25.20;99.90
16441;DHT22;8330;-33.858;151.184;2024-01-30T13:54:03;25.20;99.90
16441;DHT22;8330;-33.858;151.184;2024-01-30T13:56:34;25.20;99.90
16441;DHT22;8330;-33.858;151.184;2024-01-30T13:59:07;25.20;99.90
16441;DHT22;8330;-33.858;151.184;2024-01-30T14:01:38;25.20;99.90
16441;DHT22;8330;-33.858;151.184;2024-01-30T14:04:08;25.20;99.90
16441;DHT22;8330;-33.858;151.184;2024-01-30T14:06:39;25.20;99.90
16441;DHT22;8330;-33.858;151.184;2024-01-30T14:09:10;25.20;99.90
16441;DHT22;8330;-33.858;151.184;2024-01-30T14:11:43;25.20;99.90
16441;DHT22;8330;-33.858;151.184;2024-01-30T14:14:15;25.20;99.90
16441;DHT22;8330;-33.858;151.184;2024-01-30T14:16:47;25.20;99.90
16441;DHT22;8330;-33.858;151.184;2024-01-30T14:19:18;25.20;99.90
16441;DHT22;8330;-33.858;151.184;2024-01-30T14:21:49;25.20;99.90
16441;DHT22;8330;-33.858;151.184;2024-01-30T14:24:19;25.20;99.90
16441;DHT22;8330;-33.858;151.184;2024-01-30T14:26:50;25.20;99.90
16441;DHT22;8330;-33.858;151.184;2024-01-30T14:29:23;25.20;99.90
16441;DHT22;8330;-33.858;151.184;2024-01-30T14:31:54;25.20;99.90
16441;DHT22;8330;-33.858;151.184;2024-01-30T14:34:25;25.20;99.90
16441;DHT22;8330;-33.858;151.184;2024-01-30T14:36:56;25.10;99.90
16441;DHT22;8330;-33.858;151.184;2024-01-30T14:39:26;25.20;99.90
16441;DHT22;8330;-33.858;151.184;2024-01-30T14:41:57;25.20;99.90
16441;DHT22;8330;-33.858;151.184;2024-01-30T14:44:30;25.20;99.90
16441;DHT22;8330;-33.858;151.184;2024-01-30T14:47:01;25.20;99.90
16441;DHT22;8330;-33.858;151.184;2024-01-30T14:49:32;25.20;99.90
16441;DHT22;8330;-33.858;151.184;2024-01-30T14:52:03;25.20;99.90
16441;DHT22;8330;-33.858;151.184;2024-01-30T14:54:34;25.20;99.90
16441;DHT22;8330;-33.858;151.184;2024-01-30T14:57:05;25.20;99.90
16441;DHT22;8330;-33.858;151.184;2024-01-30T14:59:38;25.20;99.90
16441;DHT22;8330;-33.858;151.184;2024-01-30T15:02:09;25.10;99.90
16441;DHT22;8330;-33.858;151.184;2024-01-30T15:04:40;25.10;99.90
16441;DHT22;8330;-33.858;151.184;2024-01-30T15:07:10;25.10;99.90
16441;DHT22;8330;-33.858;151.184;2024-01-30T15:09:41;25.20;99.90
16441;DHT22;8330;-33.858;151.184;2024-01-30T15:12:12;25.10;99.90
16441;DHT22;8330;-33.858;151.184;2024-01-30T15:14:44;25.10;99.90
16441;DHT22;8330;-33.858;151.184;2024-01-30T15:17:18;25.00;99.90
16441;DHT22;8330;-33.858;151.184;2024-01-30T15:19:50;25.10;99.90
16441;DHT22;8330;-33.858;151.184;2024-01-30T15:22:20;25.10;99.90
16441;DHT22;8330;-33.858;151.184;2024-01-30T15:24:51;25.00;99.90
16441;DHT22;8330;-33.858;151.184;2024-01-30T15:27:22;25.10;99.90
16441;DHT22;8330;-33.858;151.184;2024-01-30T15:29:55;25.10;99.90